Time;durP1;ratioP1;P1;durP2;ratioP2;P2;SDS_P1;SDS_P2;PMS_P1;PMS_P2;Temp;Humidity;BMP_temperature;BMP_pressure;BME280_temperature;BME280_humidity;BME280_pressure;Samples;Min_cycle;Max_cycle;Signal;HPM_P1;HPM_P2
2021/11/14 00:01:17;;;;;;;0.75;0.75;;;1.60;99.90;;;;;;5091200;28;20196;-70
2021/11/14 00:03:42;;;;;;;0.70;0.70;;;1.60;99.90;;;;;;5089713;28;20204;-70
2021/11/14 00:06:10;;;;;;;0.60;0.60;;;1.60;99.90;;;;;;5091257;28;20207;-70
2021/11/14 00:08:36;;;;;;;0.65;0.65;;;1.60;99.90;;;;;;5089551;28;20670;-70
2021/11/14 00:11:09;;;;;;;0.60;0.60;;;1.60;99.90;;;;;;5090950;28;20200;-70
2021/11/14 00:13:37;;;;;;;0.60;0.60;;;1.60;99.90;;;;;;5070261;28;20291;-70
2021/11/14 00:16:03;;;;;;;0.75;0.75;;;1.70;99.90;;;;;;5089703;28;20192;-73
2021/11/14 00:18:29;;;;;;;0.70;0.70;;;1.70;99.90;;;;;;5089134;28;20217;-70
2021/11/14 00:20:55;;;;;;;0.60;0.60;;;1.70;99.90;;;;;;5072820;28;20200;-70
2021/11/14 00:23:21;;;;;;;0.65;0.65;;;1.70;99.90;;;;;;5072434;28;20240;-70
2021/11/14 00:25:47;;;;;;;0.75;0.75;;;1.70;99.90;;;;;;5065497;28;20315;-70
2021/11/14 00:28:13;;;;;;;0.60;0.60;;;1.60;99.90;;;;;;5069094;28;20295;-70
2021/11/14 00:30:39;;;;;;;0.70;0.70;;;1.60;99.90;;;;;;5080523;28;20215;-70
2021/11/14 00:33:06;;;;;;;0.70;0.70;;;1.60;99.90;;;;;;5070629;28;20205;-70
2021/11/14 00:35:33;;;;;;;0.60;0.60;;;1.60;99.90;;;;;;5087003;28;20200;-70
2021/11/14 00:37:59;;;;;;;0.60;0.60;;;1.60;99.90;;;;;;5087689;28;20354;-70
2021/11/14 00:40:29;;;;;;;0.70;0.70;;;1.60;99.90;;;;;;5088149;28;20651;-70
2021/11/14 00:42:57;;;;;;;0.63;0.63;;;1.60;99.90;;;;;;5074560;28;20210;-70
2021/11/14 00:45:25;;;;;;;0.65;0.65;;;1.60;99.90;;;;;;5074583;28;20738;-70
2021/11/14 00:47:52;;;;;;;0.60;0.60;;;1.60;99.90;;;;;;5090783;28;20223;-70
2021/11/14 00:50:18;;;;;;;0.70;0.70;;;1.60;99.90;;;;;;5074642;28;20199;-69
2021/11/14 00:52:45;;;;;;;0.60;0.60;;;1.60;99.90;;;;;;5074420;28;20600;-69
2021/11/14 00:55:15;;;;;;;0.70;0.70;;;1.60;99.90;;;;;;5074507;28;20232;-70
2021/11/14 00:57:41;;;;;;;0.60;0.60;;;1.60;99.90;;;;;;5073678;28;20219;-70
2021/11/14 01:00:13;;;;;;;0.70;0.70;;;1.60;99.90;;;;;;5070360;28;20618;-75
2021/11/14 01:02:39;;;;;;;0.60;0.60;;;1.50;99.90;;;;;;5072021;28;20252;-70
2021/11/14 01:05:07;;;;;;;0.77;0.77;;;1.50;99.90;;;;;;5071735;28;20208;-70
2021/11/14 01:07:34;;;;;;;0.70;0.70;;;1.50;99.90;;;;;;5075466;28;20769;-70
2021/11/14 01:10:00;;;;;;;0.77;0.77;;;1.50;99.90;;;;;;5072811;28;20207;-70
2021/11/14 01:12:25;;;;;;;0.60;0.60;;;1.50;99.90;;;;;;5070159;28;20200;-70
2021/11/14 01:14:51;;;;;;;0.70;0.70;;;1.50;99.90;;;;;;5079138;28;20205;-70
2021/11/14 01:17:18;;;;;;;0.70;0.70;;;1.40;99.90;;;;;;5070196;28;20208;-69
2021/11/14 01:19:44;;;;;;;0.60;0.60;;;1.40;99.90;;;;;;5077365;28;20353;-70
2021/11/14 01:22:11;;;;;;;0.70;0.70;;;1.40;99.90;;;;;;5081332;28;20230;-70
2021/11/14 01:24:37;;;;;;;0.60;0.60;;;1.40;99.90;;;;;;5066614;28;20217;-70
2021/11/14 01:27:03;;;;;;;0.70;0.70;;;1.40;99.90;;;;;;5053694;28;20295;-70
2021/11/14 01:29:29;;;;;;;0.70;0.70;;;1.40;99.90;;;;;;5073579;28;20213;-70
2021/11/14 01:31:55;;;;;;;0.70;0.70;;;1.40;99.90;;;;;;5055635;28;20611;-70
2021/11/14 01:34:20;;;;;;;0.60;0.60;;;1.40;99.90;;;;;;5073652;28;20205;-70
2021/11/14 01:36:46;;;;;;;0.70;0.70;;;1.40;99.90;;;;;;5072274;28;20196;-70
2021/11/14 01:39:12;;;;;;;0.80;0.80;;;1.40;99.90;;;;;;5055551;28;20201;-70
2021/11/14 01:41:38;;;;;;;0.70;0.70;;;1.30;99.90;;;;;;5054097;28;20249;-70
2021/11/14 01:44:04;;;;;;;0.65;0.65;;;1.30;99.90;;;;;;5072563;28;20211;-70
2021/11/14 01:46:30;;;;;;;0.70;0.70;;;1.30;99.90;;;;;;5072376;28;20216;-70
2021/11/14 01:48:56;;;;;;;0.75;0.75;;;1.30;99.90;;;;;;5072660;28;20683;-70
2021/11/14 01:51:22;;;;;;;0.77;0.77;;;1.20;99.90;;;;;;5055226;28;20208;-70
2021/11/14 01:53:49;;;;;;;0.68;0.68;;;1.20;99.90;;;;;;5055344;28;20205;-70
2021/11/14 01:56:16;;;;;;;0.70;0.70;;;1.20;99.90;;;;;;5054147;28;20236;-70
2021/11/14 01:58:43;;;;;;;0.60;0.60;;;1.20;99.90;;;;;;5073198;28;20208;-70
2021/11/14 02:01:22;;;;;;;0.77;0.77;;;1.10;99.90;;;;;;5073146;28;20200;-70
2021/11/14 02:03:52;;;;;;;0.55;0.55;;;1.10;99.90;;;;;;5071863;28;20209;-70
2021/11/14 02:06:18;;;;;;;0.60;0.60;;;1.10;99.90;;;;;;5071894;28;20207;-70
2021/11/14 02:08:45;;;;;;;0.70;0.70;;;1.10;99.90;;;;;;5053359;28;20287;-70
2021/11/14 02:11:14;;;;;;;0.65;0.65;;;1.10;99.90;;;;;;5053802;28;20204;-69
2021/11/14 02:13:41;;;;;;;0.60;0.60;;;1.10;99.90;;;;;;5071390;28;20201;-70
2021/11/14 02:16:07;;;;;;;0.60;0.60;;;1.10;99.90;;;;;;5073085;28;20220;-70
2021/11/14 02:18:33;;;;;;;0.70;0.70;;;1.10;99.90;;;;;;5054537;28;20196;-70
2021/11/14 02:20:59;;;;;;;0.88;0.88;;;1.20;99.90;;;;;;5053605;28;20254;-70
2021/11/14 02:23:25;;;;;;;0.80;0.80;;;1.10;99.90;;;;;;5071057;28;20258;-70
2021/11/14 02:25:52;;;;;;;0.68;0.68;;;1.10;99.90;;;;;;5088915;28;20698;-70
2021/11/14 02:28:20;;;;;;;0.60;0.60;;;1.10;99.90;;;;;;5092926;28;20295;-71
2021/11/14 02:30:49;;;;;;;0.60;0.60;;;1.10;99.90;;;;;;5092764;28;20673;-70
2021/11/14 02:33:16;;;;;;;0.60;0.60;;;1.10;99.90;;;;;;5092950;28;20192;-70
2021/11/14 02:35:52;;;;;;;0.50;0.50;;;1.10;99.90;;;;;;5092562;28;20192;-70
2021/11/14 02:38:20;;;;;;;0.70;0.70;;;1.20;99.90;;;;;;5074611;28;20207;-70
2021/11/14 02:40:46;;;;;;;0.70;0.70;;;1.20;99.90;;;;;;5092753;28;20291;-70
2021/11/14 02:43:13;;;;;;;0.70;0.70;;;1.10;99.90;;;;;;5092756;28;20718;-70
2021/11/14 02:45:39;;;;;;;0.68;0.68;;;1.10;99.90;;;;;;5092746;28;20674;-70
2021/11/14 02:48:06;;;;;;;0.70;0.70;;;1.10;99.90;;;;;;5092547;28;20200;-70
2021/11/14 02:50:35;;;;;;;0.70;0.70;;;1.10;99.90;;;;;;5092734;28;20265;-70
2021/11/14 02:53:01;;;;;;;0.60;0.60;;;1.10;99.90;;;;;;5074141;28;20265;-70
2021/11/14 02:55:28;;;;;;;0.70;0.70;;;1.10;99.90;;;;;;5090905;28;20724;-70
2021/11/14 02:57:55;;;;;;;0.70;0.70;;;1.10;99.90;;;;;;5092447;28;20222;-70
2021/11/14 03:00:34;;;;;;;0.57;0.57;;;1.10;99.90;;;;;;5071728;28;20211;-71
2021/11/14 03:03:00;;;;;;;0.60;0.60;;;1.10;99.90;;;;;;5088057;28;20208;-69
2021/11/14 03:05:26;;;;;;;0.60;0.60;;;1.10;99.90;;;;;;5091821;28;20215;-70
2021/11/14 03:07:53;;;;;;;0.60;0.60;;;1.10;99.90;;;;;;5092034;28;20310;-70
2021/11/14 03:10:24;;;;;;;0.70;0.70;;;1.10;99.90;;;;;;5090399;28;20200;-70
2021/11/14 03:12:58;;;;;;;0.60;0.60;;;1.10;99.90;;;;;;5092038;28;20214;-70
2021/11/14 03:15:25;;;;;;;0.65;0.65;;;1.00;99.90;;;;;;5090551;28;20657;-70
2021/11/14 03:17:51;;;;;;;0.77;0.77;;;1.00;99.90;;;;;;5091691;28;20736;-70
2021/11/14 03:20:16;;;;;;;0.80;0.80;;;1.00;99.90;;;;;;5073652;28;20200;-69
2021/11/14 03:22:42;;;;;;;0.82;0.82;;;1.00;99.90;;;;;;5089881;28;20265;-76
2021/11/14 03:25:08;;;;;;;0.70;0.70;;;0.90;99.90;;;;;;5090374;28;20228;-70
2021/11/14 03:27:34;;;;;;;0.70;0.70;;;0.90;99.90;;;;;;5073213;28;20207;-70
2021/11/14 03:30:00;;;;;;;0.60;0.60;;;1.00;99.90;;;;;;5072186;28;20204;-70
2021/11/14 03:32:25;;;;;;;0.70;0.70;;;1.00;99.90;;;;;;5091555;28;20196;-69
2021/11/14 03:34:51;;;;;;;0.80;0.80;;;1.00;99.90;;;;;;5090306;28;20553;-71
2021/11/14 03:37:19;;;;;;;0.70;0.70;;;1.00;99.90;;;;;;5073536;28;20196;-70
2021/11/14 03:39:47;;;;;;;0.77;0.77;;;1.00;99.90;;;;;;5054699;28;20495;-70
2021/11/14 03:42:13;;;;;;;0.70;0.70;;;1.00;99.90;;;;;;5090359;28;20654;-70
2021/11/14 03:44:40;;;;;;;0.82;0.82;;;1.00;99.90;;;;;;5091014;28;20593;-70
2021/11/14 03:47:07;;;;;;;0.60;0.60;;;1.00;99.90;;;;;;5091452;28;20655;-70
2021/11/14 03:49:33;;;;;;;0.70;0.70;;;1.10;99.90;;;;;;5090458;28;20207;-70
2021/11/14 03:51:59;;;;;;;0.60;0.60;;;1.10;99.90;;;;;;5091429;28;20268;-70
2021/11/14 03:54:25;;;;;;;0.60;0.60;;;1.00;99.90;;;;;;5089920;28;20200;-69
2021/11/14 03:56:51;;;;;;;0.70;0.70;;;1.00;99.90;;;;;;5089952;28;20208;-69
2021/11/14 03:59:17;;;;;;;0.60;0.60;;;1.00;99.90;;;;;;5073205;28;20287;-69
2021/11/14 04:01:42;;;;;;;0.68;0.68;;;1.00;99.90;;;;;;5089246;28;20215;-72
2021/11/14 04:04:12;;;;;;;0.60;0.60;;;1.00;99.90;;;;;;5091174;28;20662;-70
2021/11/14 04:06:38;;;;;;;0.68;0.68;;;1.00;99.90;;;;;;5089450;28;20210;-71
2021/11/14 04:09:04;;;;;;;0.60;0.60;;;1.10;99.90;;;;;;5089900;28;20239;-70
2021/11/14 04:11:30;;;;;;;0.70;0.70;;;1.10;99.90;;;;;;5088785;28;20248;-70
2021/11/14 04:13:55;;;;;;;0.60;0.60;;;1.10;99.90;;;;;;5091199;28;20204;-70
2021/11/14 04:16:22;;;;;;;0.65;0.65;;;1.00;99.90;;;;;;5089735;28;20196;-70
2021/11/14 04:18:47;;;;;;;0.70;0.70;;;1.00;99.90;;;;;;5089544;28;20565;-70
2021/11/14 04:21:13;;;;;;;0.70;0.70;;;1.10;99.90;;;;;;5091050;28;20282;-69
2021/11/14 04:23:39;;;;;;;0.90;0.90;;;1.00;99.90;;;;;;5090796;28;20659;-70
2021/11/14 04:26:07;;;;;;;0.65;0.65;;;1.00;99.90;;;;;;5072756;28;20311;-71
2021/11/14 04:28:33;;;;;;;0.68;0.68;;;1.00;99.90;;;;;;5091007;28;20258;-71
2021/11/14 04:30:59;;;;;;;0.80;0.80;;;1.00;99.90;;;;;;5071646;28;20235;-70
2021/11/14 04:33:25;;;;;;;0.70;0.70;;;1.00;99.90;;;;;;5091255;28;20219;-70
2021/11/14 04:35:52;;;;;;;0.60;0.60;;;1.00;99.90;;;;;;5091482;28;20623;-70
2021/11/14 04:38:18;;;;;;;0.65;0.65;;;1.00;99.90;;;;;;5090972;28;20606;-70
2021/11/14 04:40:47;;;;;;;0.70;0.70;;;1.00;99.90;;;;;;5072897;28;20549;-70
2021/11/14 04:43:17;;;;;;;0.60;0.60;;;1.00;99.90;;;;;;5071409;28;20721;-69
2021/11/14 04:45:43;;;;;;;0.60;0.60;;;1.00;99.90;;;;;;5090764;28;20279;-72
2021/11/14 04:48:09;;;;;;;0.60;0.60;;;1.00;99.90;;;;;;5071406;28;20303;-69
2021/11/14 04:50:35;;;;;;;0.70;0.70;;;1.00;99.90;;;;;;5072380;28;20228;-69
2021/11/14 04:53:02;;;;;;;0.60;0.60;;;1.00;99.90;;;;;;5089177;28;20238;-69
2021/11/14 04:55:27;;;;;;;0.52;0.52;;;1.00;99.90;;;;;;5090654;28;20651;-69
2021/11/14 04:57:53;;;;;;;0.60;0.60;;;1.00;99.90;;;;;;5091527;28;20254;-69
2021/11/14 05:00:28;;;;;;;0.70;0.70;;;1.00;99.90;;;;;;5089060;28;20253;-69
2021/11/14 05:02:55;;;;;;;0.60;0.60;;;1.00;99.90;;;;;;5089028;28;20610;-69
2021/11/14 05:05:21;;;;;;;0.70;0.70;;;1.10;99.90;;;;;;5089138;28;20208;-70
2021/11/14 05:07:48;;;;;;;0.70;0.70;;;1.00;99.90;;;;;;5089217;28;20570;-70
2021/11/14 05:10:14;;;;;;;0.63;0.63;;;1.00;99.90;;;;;;5090580;28;20675;-69
2021/11/14 05:12:39;;;;;;;0.65;0.65;;;1.00;99.90;;;;;;5072217;28;20697;-69
2021/11/14 05:15:07;;;;;;;0.77;0.77;;;1.00;99.90;;;;;;5089246;28;20223;-69
2021/11/14 05:17:32;;;;;;;0.63;0.63;;;1.00;99.90;;;;;;5088994;28;20207;-69
2021/11/14 05:20:01;;;;;;;0.70;0.70;;;1.00;99.90;;;;;;5090434;28;20671;-69
2021/11/14 05:22:26;;;;;;;0.65;0.65;;;1.00;99.90;;;;;;5091602;28;20203;-70
2021/11/14 05:24:54;;;;;;;0.70;0.70;;;1.10;99.90;;;;;;5092519;28;20224;-70
2021/11/14 05:27:20;;;;;;;0.70;0.70;;;1.10;99.90;;;;;;5092702;28;20211;-70
2021/11/14 05:29:46;;;;;;;0.52;0.52;;;1.00;99.90;;;;;;5093198;28;20196;-70
2021/11/14 05:32:11;;;;;;;0.60;0.60;;;1.00;99.90;;;;;;5093403;28;20212;-69
2021/11/14 05:34:37;;;;;;;0.70;0.70;;;1.00;99.90;;;;;;5093758;28;20624;-70
2021/11/14 05:37:04;;;;;;;0.73;0.73;;;1.10;99.90;;;;;;5074144;28;20295;-69
2021/11/14 05:39:30;;;;;;;0.70;0.70;;;1.00;99.90;;;;;;5092236;28;20203;-69
2021/11/14 05:41:55;;;;;;;0.68;0.68;;;1.00;99.90;;;;;;5074070;28;20677;-69
2021/11/14 05:44:21;;;;;;;0.70;0.70;;;1.00;99.90;;;;;;5093485;28;20295;-69
2021/11/14 05:46:47;;;;;;;0.68;0.68;;;1.00;99.90;;;;;;5093601;28;20204;-69
2021/11/14 05:49:14;;;;;;;0.77;0.77;;;1.00;99.90;;;;;;5092223;28;20537;-69
2021/11/14 05:51:41;;;;;;;0.80;0.80;;;1.00;99.90;;;;;;5073729;28;20200;-69
2021/11/14 05:54:07;;;;;;;0.70;0.70;;;1.00;99.90;;;;;;5073795;28;20345;-69
2021/11/14 05:56:33;;;;;;;0.60;0.60;;;0.90;99.90;;;;;;5093275;28;20272;-69
2021/11/14 06:01:50;;;;;;;0.70;0.70;;;0.90;99.90;;;;;;5091693;28;20253;-69
2021/11/14 06:06:54;;;;;;;0.60;0.60;;;1.00;99.90;;;;;;5093217;28;20208;-69
2021/11/14 06:09:19;;;;;;;0.50;0.50;;;0.90;99.90;;;;;;5093286;28;20211;-69
2021/11/14 06:11:45;;;;;;;0.70;0.70;;;0.90;99.90;;;;;;5091763;28;20641;-69
2021/11/14 06:14:11;;;;;;;0.70;0.70;;;0.90;99.90;;;;;;5093138;28;20204;-69
2021/11/14 06:16:38;;;;;;;0.80;0.80;;;0.90;99.90;;;;;;5091608;28;20196;-69
2021/11/14 06:19:03;;;;;;;0.70;0.70;;;0.90;99.90;;;;;;5091453;28;20200;-69
2021/11/14 06:21:29;;;;;;;0.60;0.60;;;0.90;99.90;;;;;;5091512;28;20257;-69
2021/11/14 06:23:55;;;;;;;0.60;0.60;;;0.90;99.90;;;;;;5074363;28;20565;-70
2021/11/14 06:26:23;;;;;;;0.80;0.80;;;0.90;99.90;;;;;;5092841;28;20216;-69
2021/11/14 06:28:48;;;;;;;0.70;0.70;;;0.90;99.90;;;;;;5073603;28;20230;-69
2021/11/14 06:31:14;;;;;;;0.70;0.70;;;0.90;99.90;;;;;;5092307;28;20204;-69
2021/11/14 06:33:40;;;;;;;0.60;0.60;;;0.90;99.90;;;;;;5091955;28;20224;-69
2021/11/14 06:36:05;;;;;;;0.73;0.73;;;0.90;99.90;;;;;;5092866;28;20261;-69
2021/11/14 06:38:31;;;;;;;0.70;0.70;;;0.90;99.90;;;;;;5091162;28;20297;-69
2021/11/14 06:40:57;;;;;;;0.60;0.60;;;0.90;99.90;;;;;;5072851;28;20200;-70
2021/11/14 06:43:23;;;;;;;0.70;0.70;;;0.90;99.90;;;;;;5072748;28;20211;-69
2021/11/14 06:45:49;;;;;;;0.70;0.70;;;0.90;99.90;;;;;;5092557;28;20246;-69
2021/11/14 06:48:14;;;;;;;0.80;0.80;;;0.90;99.90;;;;;;5072878;28;20302;-69
2021/11/14 06:50:40;;;;;;;0.73;0.73;;;1.00;99.90;;;;;;5073388;28;20227;-69
2021/11/14 06:53:06;;;;;;;0.75;0.75;;;0.90;99.90;;;;;;5091148;28;20227;-69
2021/11/14 06:55:32;;;;;;;0.70;0.70;;;0.90;99.90;;;;;;5089118;28;20286;-70
2021/11/14 06:57:58;;;;;;;0.60;0.60;;;1.00;99.90;;;;;;5091085;28;20238;-69
2021/11/14 07:00:25;;;;;;;0.60;0.60;;;1.00;99.90;;;;;;5090930;28;20192;-69
2021/11/14 07:02:51;;;;;;;0.70;0.70;;;1.00;99.90;;;;;;5092167;28;20273;-68
2021/11/14 07:05:17;;;;;;;0.60;0.60;;;1.00;99.90;;;;;;5090788;28;20200;-69
2021/11/14 07:07:43;;;;;;;0.50;0.50;;;1.00;99.90;;;;;;5091753;28;20204;-69
2021/11/14 07:10:12;;;;;;;0.60;0.60;;;1.00;99.90;;;;;;5093644;28;20658;-69
2021/11/14 07:12:37;;;;;;;0.70;0.70;;;1.00;99.90;;;;;;5106013;28;20274;-69
2021/11/14 07:15:05;;;;;;;0.70;0.70;;;1.00;99.90;;;;;;5073579;28;20200;-69
2021/11/14 07:17:31;;;;;;;0.60;0.60;;;1.00;99.90;;;;;;5091844;28;20208;-69
2021/11/14 07:19:58;;;;;;;0.60;0.60;;;1.00;99.90;;;;;;5091787;28;20195;-69
2021/11/14 07:22:24;;;;;;;0.60;0.60;;;1.00;99.90;;;;;;5073525;28;20677;-68
2021/11/14 07:24:50;;;;;;;0.70;0.70;;;1.00;99.90;;;;;;5092137;28;20701;-69
2021/11/14 07:27:16;;;;;;;0.75;0.75;;;1.00;99.90;;;;;;5090326;28;20204;-69
2021/11/14 07:29:42;;;;;;;0.55;0.55;;;1.10;99.90;;;;;;5071717;28;20208;-69
2021/11/14 07:32:08;;;;;;;0.80;0.80;;;1.10;99.90;;;;;;5091786;28;20204;-68
2021/11/14 07:34:34;;;;;;;0.70;0.70;;;1.10;99.90;;;;;;5072141;28;20208;-69
2021/11/14 07:37:00;;;;;;;0.73;0.73;;;1.10;99.90;;;;;;5091776;28;20215;-69
2021/11/14 07:39:26;;;;;;;0.60;0.60;;;1.10;99.90;;;;;;5090014;28;20211;-69
2021/11/14 07:41:52;;;;;;;0.75;0.75;;;1.10;99.90;;;;;;5090128;28;20682;-69
2021/11/14 07:44:18;;;;;;;0.60;0.60;;;1.10;99.90;;;;;;5091475;28;20207;-69
2021/11/14 07:46:44;;;;;;;0.60;0.60;;;1.10;99.90;;;;;;5089845;28;20238;-70
2021/11/14 07:49:09;;;;;;;0.63;0.63;;;1.10;99.90;;;;;;5090187;28;20226;-69
2021/11/14 07:51:35;;;;;;;0.55;0.55;;;1.10;99.90;;;;;;5089748;28;20208;-68
2021/11/14 07:54:03;;;;;;;0.68;0.68;;;1.10;99.90;;;;;;5071690;28;20207;-69
2021/11/14 07:56:29;;;;;;;0.90;0.90;;;1.00;99.90;;;;;;5089943;28;20232;-69
2021/11/14 07:58:55;;;;;;;0.57;0.57;;;0.90;99.90;;;;;;5091197;28;20257;-70
2021/11/14 08:01:21;;;;;;;0.63;0.63;;;0.90;99.90;;;;;;5091000;28;20211;-70
2021/11/14 08:03:47;;;;;;;0.77;0.77;;;0.90;99.90;;;;;;5089825;28;20204;-71
2021/11/14 08:06:13;;;;;;;0.70;0.70;;;0.80;99.90;;;;;;5071670;28;20212;-70
2021/11/14 08:08:40;;;;;;;0.55;0.55;;;0.90;99.90;;;;;;5089409;28;20674;-70
2021/11/14 08:11:05;;;;;;;0.70;0.70;;;0.90;99.90;;;;;;5072861;28;20196;-69
2021/11/14 08:13:31;;;;;;;0.70;0.70;;;0.90;99.90;;;;;;5089580;28;20207;-70
2021/11/14 08:15:57;;;;;;;0.80;0.80;;;0.90;99.90;;;;;;5073058;28;20575;-71
2021/11/14 08:18:23;;;;;;;0.70;0.70;;;0.90;99.90;;;;;;5089391;28;20203;-70
2021/11/14 08:20:49;;;;;;;0.60;0.60;;;0.90;99.90;;;;;;5089407;28;20208;-69
2021/11/14 08:23:15;;;;;;;0.77;0.77;;;0.90;99.90;;;;;;5070049;28;20272;-69
2021/11/14 08:25:42;;;;;;;0.70;0.70;;;0.90;99.90;;;;;;5072505;28;20239;-70
2021/11/14 08:28:08;;;;;;;0.70;0.70;;;0.90;99.90;;;;;;5090731;28;20207;-70
2021/11/14 08:30:34;;;;;;;0.50;0.50;;;0.90;99.90;;;;;;5090740;28;20587;-70
2021/11/14 08:33:00;;;;;;;0.70;0.70;;;0.90;99.90;;;;;;5090893;28;20643;-69
2021/11/14 08:35:26;;;;;;;0.70;0.70;;;0.90;99.90;;;;;;5091450;28;20200;-70
2021/11/14 08:37:56;;;;;;;0.70;0.70;;;0.90;99.90;;;;;;5098387;28;20662;-70
2021/11/14 08:40:27;;;;;;;0.70;0.70;;;0.90;99.90;;;;;;5089580;28;20239;-70
2021/11/14 08:42:55;;;;;;;0.70;0.70;;;0.90;99.90;;;;;;5090738;28;20199;-70
2021/11/14 08:45:22;;;;;;;0.60;0.60;;;0.90;99.90;;;;;;5087674;28;20254;-69
2021/11/14 08:47:48;;;;;;;0.80;0.80;;;0.90;99.90;;;;;;5089209;28;20215;-69
2021/11/14 08:50:14;;;;;;;0.70;0.70;;;0.90;99.90;;;;;;5072489;28;20231;-69
2021/11/14 08:52:45;;;;;;;0.80;0.80;;;0.90;99.90;;;;;;5071367;28;20226;-69
2021/11/14 08:55:22;;;;;;;0.70;0.70;;;0.80;99.90;;;;;;5073121;28;20556;-73
2021/11/14 08:57:49;;;;;;;0.80;0.80;;;0.80;99.90;;;;;;5075134;28;20257;-71
2021/11/14 09:00:23;;;;;;;0.80;0.80;;;0.80;99.90;;;;;;5074858;28;20200;-72
2021/11/14 09:02:51;;;;;;;0.70;0.70;;;0.80;99.90;;;;;;5092873;28;20211;-73
2021/11/14 09:05:18;;;;;;;0.60;0.60;;;0.80;99.90;;;;;;5094755;28;20659;-72
2021/11/14 09:07:44;;;;;;;0.73;0.73;;;0.90;99.90;;;;;;5076602;28;20663;-75
2021/11/14 09:10:11;;;;;;;0.80;0.80;;;0.90;99.90;;;;;;5111711;28;20199;-73
2021/11/14 09:12:37;;;;;;;0.80;0.80;;;0.90;99.90;;;;;;5075327;28;20655;-71
2021/11/14 09:15:04;;;;;;;0.65;0.65;;;0.90;99.90;;;;;;5076489;28;20257;-72
2021/11/14 09:17:29;;;;;;;0.63;0.63;;;0.90;99.90;;;;;;5094179;28;20269;-70
2021/11/14 09:19:55;;;;;;;0.70;0.70;;;0.90;99.90;;;;;;5093832;28;20208;-70
2021/11/14 09:22:21;;;;;;;0.75;0.75;;;0.90;99.90;;;;;;5093830;28;20573;-70
2021/11/14 09:24:47;;;;;;;0.70;0.70;;;0.90;99.90;;;;;;5092650;28;20289;-72
2021/11/14 09:27:13;;;;;;;0.57;0.57;;;1.00;99.90;;;;;;5094194;28;20211;-72
2021/11/14 09:29:39;;;;;;;0.70;0.70;;;1.00;99.90;;;;;;5093796;28;20204;-71
2021/11/14 09:32:06;;;;;;;0.60;0.60;;;1.10;99.90;;;;;;5075770;28;20208;-70
2021/11/14 09:34:32;;;;;;;0.70;0.70;;;1.10;99.90;;;;;;5092273;28;20197;-72
2021/11/14 09:36:59;;;;;;;0.60;0.60;;;1.10;99.90;;;;;;5075812;28;20321;-71
2021/11/14 09:39:24;;;;;;;0.80;0.80;;;1.20;99.90;;;;;;5093793;28;20570;-72
2021/11/14 09:41:50;;;;;;;0.70;0.70;;;1.20;99.90;;;;;;5093628;28;20204;-71
2021/11/14 09:44:18;;;;;;;0.60;0.60;;;1.20;99.90;;;;;;5075629;28;20200;-73
2021/11/14 09:47:03;;;;;;;0.65;0.65;;;1.20;99.90;;;;;;5091907;28;20604;-71
2021/11/14 09:49:31;;;;;;;0.75;0.75;;;1.20;99.90;;;;;;5093552;28;20713;-71
2021/11/14 09:52:00;;;;;;;0.60;0.60;;;1.30;99.90;;;;;;5074144;28;20618;-70
2021/11/14 09:54:28;;;;;;;0.60;0.60;;;1.30;99.90;;;;;;5075225;28;20196;-73
2021/11/14 09:56:55;;;;;;;0.80;0.80;;;1.30;99.90;;;;;;5092250;28;20311;-72
2021/11/14 09:59:22;;;;;;;0.60;0.60;;;1.40;99.90;;;;;;5090509;28;20287;-71
2021/11/14 10:01:53;;;;;;;0.60;0.60;;;1.40;99.90;;;;;;5093060;28;20281;-72
2021/11/14 10:04:20;;;;;;;0.70;0.70;;;1.40;99.90;;;;;;5093498;28;20191;-70
2021/11/14 10:07:06;;;;;;;0.65;0.65;;;1.40;99.90;;;;;;5074884;28;20192;-73
2021/11/14 10:09:40;;;;;;;0.65;0.65;;;1.40;99.90;;;;;;5056383;28;20201;-71
2021/11/14 10:12:13;;;;;;;0.73;0.73;;;1.50;99.90;;;;;;5093569;28;20221;-71
2021/11/14 10:14:40;;;;;;;0.70;0.70;;;1.50;99.90;;;;;;5073492;28;20224;-71
2021/11/14 10:17:16;;;;;;;0.68;0.68;;;1.50;99.90;;;;;;5093275;28;20210;-71
2021/11/14 10:19:42;;;;;;;0.60;0.60;;;1.50;99.90;;;;;;5073029;28;20238;-71
2021/11/14 10:22:08;;;;;;;0.70;0.70;;;1.60;99.90;;;;;;5073351;28;20210;-71
2021/11/14 10:24:34;;;;;;;0.70;0.70;;;1.60;99.90;;;;;;5092023;28;20231;-72
2021/11/14 10:27:12;;;;;;;0.63;0.63;;;1.70;99.90;;;;;;5092953;28;20670;-72
2021/11/14 10:29:39;;;;;;;0.60;0.60;;;1.70;99.90;;;;;;5091767;28;20192;-71
2021/11/14 10:32:10;;;;;;;0.70;0.70;;;1.80;99.90;;;;;;5093137;28;20208;-70
2021/11/14 10:34:49;;;;;;;0.63;0.63;;;1.70;99.90;;;;;;5108569;28;20205;-71
2021/11/14 10:37:18;;;;;;;0.60;0.60;;;1.80;99.90;;;;;;5074955;28;20690;-72
2021/11/14 10:39:44;;;;;;;0.60;0.60;;;1.90;99.90;;;;;;5074512;28;20574;-71
2021/11/14 10:42:15;;;;;;;0.50;0.50;;;1.90;99.90;;;;;;5073649;28;20686;-71
2021/11/14 10:44:52;;;;;;;0.70;0.70;;;1.90;99.90;;;;;;5091000;28;20200;-70
2021/11/14 10:47:22;;;;;;;0.60;0.60;;;1.80;99.90;;;;;;5071962;28;20251;-70
2021/11/14 10:49:52;;;;;;;0.80;0.80;;;1.80;99.90;;;;;;5092398;28;20206;-70
2021/11/14 10:52:18;;;;;;;0.68;0.68;;;1.90;99.90;;;;;;5090952;28;20274;-71
2021/11/14 10:54:49;;;;;;;0.60;0.60;;;1.90;99.90;;;;;;5090814;28;20207;-71
2021/11/14 10:57:15;;;;;;;0.73;0.73;;;2.00;99.90;;;;;;5092303;28;20569;-71
2021/11/14 10:59:53;;;;;;;0.70;0.70;;;2.00;99.90;;;;;;5092250;28;20219;-71
2021/11/14 11:02:21;;;;;;;0.60;0.60;;;2.00;99.90;;;;;;5072309;28;20238;-71
2021/11/14 11:04:51;;;;;;;0.65;0.65;;;2.00;99.90;;;;;;5090702;28;20257;-71
2021/11/14 11:07:18;;;;;;;0.70;0.70;;;2.00;99.90;;;;;;5073831;28;20227;-71
2021/11/14 11:09:44;;;;;;;0.80;0.80;;;2.00;99.90;;;;;;5091944;28;20192;-73
2021/11/14 11:12:16;;;;;;;0.60;0.60;;;2.00;99.90;;;;;;5091916;28;20219;-72
2021/11/14 11:15:01;;;;;;;0.60;0.60;;;2.00;99.90;;;;;;5090333;28;20681;-71
2021/11/14 11:17:29;;;;;;;0.68;0.68;;;2.10;99.90;;;;;;5073505;28;20690;-71
2021/11/14 11:19:56;;;;;;;0.60;0.60;;;2.10;99.90;;;;;;5091287;28;20196;-72
2021/11/14 11:22:24;;;;;;;0.50;0.50;;;2.10;99.90;;;;;;5091419;28;20686;-72
2021/11/14 11:24:53;;;;;;;0.60;0.60;;;2.10;99.90;;;;;;5091662;28;20220;-72
2021/11/14 11:27:20;;;;;;;0.70;0.70;;;2.20;99.90;;;;;;5090098;28;20636;-72
2021/11/14 11:29:47;;;;;;;1.60;1.50;;;2.20;99.90;;;;;;5093163;28;20666;-73
2021/11/14 11:32:15;;;;;;;0.70;0.70;;;2.20;99.90;;;;;;5092037;28;20515;-70
2021/11/14 11:34:42;;;;;;;0.70;0.70;;;2.20;99.90;;;;;;5091592;28;20651;-70
2021/11/14 11:37:09;;;;;;;0.60;0.60;;;2.20;99.90;;;;;;5090817;28;20367;-71
2021/11/14 11:39:36;;;;;;;0.70;0.70;;;2.30;99.90;;;;;;5093621;28;20593;-70
2021/11/14 11:42:03;;;;;;;0.70;0.70;;;2.20;99.90;;;;;;5105068;28;20612;-70
2021/11/14 11:44:30;;;;;;;0.60;0.60;;;2.30;99.90;;;;;;5090167;28;20709;-71
2021/11/14 11:47:08;;;;;;;0.50;0.50;;;2.30;99.90;;;;;;5091448;28;20234;-71
2021/11/14 11:49:36;;;;;;;0.73;0.73;;;2.30;99.90;;;;;;5089783;28;20670;-71
2021/11/14 11:52:10;;;;;;;0.60;0.60;;;2.20;99.90;;;;;;5091362;28;20697;-72
2021/11/14 11:54:37;;;;;;;0.68;0.68;;;2.30;99.90;;;;;;5089841;28;20228;-70
2021/11/14 11:57:08;;;;;;;1.00;1.00;;;2.30;99.90;;;;;;5091367;28;20195;-71
2021/11/14 11:59:47;;;;;;;0.60;0.60;;;2.20;99.90;;;;;;5090159;28;20192;-70
2021/11/14 12:02:21;;;;;;;0.60;0.60;;;2.20;99.90;;;;;;5091043;28;20200;-70
2021/11/14 12:04:50;;;;;;;0.60;0.60;;;2.20;99.90;;;;;;5108686;28;20608;-71
2021/11/14 12:07:20;;;;;;;0.77;0.77;;;2.30;99.90;;;;;;5089933;28;20223;-71
2021/11/14 12:09:49;;;;;;;0.80;0.80;;;2.30;99.90;;;;;;5072279;28;20231;-72
2021/11/14 12:12:22;;;;;;;0.60;0.60;;;2.40;99.90;;;;;;5090378;28;20196;-71
2021/11/14 12:15:15;;;;;;;0.60;0.60;;;2.40;99.90;;;;;;5090122;28;20207;-72
2021/11/14 12:17:53;;;;;;;0.60;0.60;;;2.40;99.90;;;;;;5071716;28;20677;-72
2021/11/14 12:20:38;;;;;;;0.70;0.70;;;2.50;99.90;;;;;;5055457;28;20212;-71
2021/11/14 12:23:29;;;;;;;0.77;0.77;;;2.40;99.90;;;;;;5071209;28;20684;-73
2021/11/14 12:25:58;;;;;;;0.50;0.50;;;2.40;99.90;;;;;;5089235;28;20277;-71
2021/11/14 12:28:32;;;;;;;0.52;0.52;;;2.40;99.90;;;;;;5090712;28;20208;-72
2021/11/14 12:31:11;;;;;;;1.95;1.80;;;2.40;99.90;;;;;;5091027;28;20304;-71
2021/11/14 12:33:42;;;;;;;0.70;0.70;;;2.40;99.90;;;;;;5095611;28;20606;-72
2021/11/14 12:36:32;;;;;;;0.57;0.57;;;2.40;99.90;;;;;;5077014;28;20200;-72
2021/11/14 12:39:16;;;;;;;0.70;0.70;;;2.30;99.90;;;;;;5076794;28;20215;-74
2021/11/14 12:41:57;;;;;;;0.70;0.70;;;2.20;99.90;;;;;;5093492;28;20195;-72
2021/11/14 12:44:35;;;;;;;0.70;0.70;;;2.20;99.90;;;;;;5075448;28;20257;-71
2021/11/14 12:47:14;;;;;;;0.70;0.70;;;2.10;99.90;;;;;;5076752;28;20714;-72
2021/11/14 12:49:39;;;;;;;0.70;0.70;;;2.10;99.90;;;;;;5093392;28;20204;-71
2021/11/14 12:52:07;;;;;;;0.70;0.70;;;2.10;99.90;;;;;;5094937;28;20207;-72
2021/11/14 12:54:33;;;;;;;0.60;0.60;;;2.10;99.90;;;;;;5094605;28;20249;-72
2021/11/14 12:57:10;;;;;;;0.70;0.70;;;2.10;99.90;;;;;;5094843;28;20196;-72
2021/11/14 12:59:43;;;;;;;0.80;0.80;;;2.10;99.90;;;;;;5094616;28;20208;-70
2021/11/14 13:02:21;;;;;;;0.50;0.50;;;2.10;99.90;;;;;;5093228;28;20232;-71
2021/11/14 13:04:47;;;;;;;0.60;0.60;;;2.10;99.90;;;;;;5094597;28;20227;-74
2021/11/14 13:07:21;;;;;;;0.60;0.60;;;2.10;99.90;;;;;;5102243;28;20204;-72